createdAt,value
2019-03-29T07:47:42.118Z,1027.29
2019-03-29T07:48:42.127Z,1027.29
2019-03-29T07:49:42.142Z,1027.31
2019-03-29T07:50:42.163Z,1027.32
2019-03-29T07:51:42.168Z,1027.30
2019-03-29T07:52:42.182Z,1027.33
2019-03-29T07:54:42.242Z,1027.38
2019-03-29T07:55:42.221Z,1027.37
2019-03-29T07:56:42.236Z,1027.39
2019-03-29T07:57:42.252Z,1027.36
2019-03-29T07:58:42.269Z,1027.33
2019-03-29T07:59:42.275Z,1027.32
2019-03-29T08:00:42.514Z,1027.37
2019-03-29T08:01:42.300Z,1027.35
2019-03-29T08:02:42.309Z,1027.38
2019-03-29T08:03:42.327Z,1027.39
2019-03-29T08:04:42.344Z,1027.35
2019-03-29T08:05:42.356Z,1027.33
2019-03-29T08:06:42.377Z,1027.34
2019-03-29T08:07:42.395Z,1027.36
2019-03-29T08:08:42.401Z,1027.34
2019-03-29T08:09:42.414Z,1027.37
2019-03-29T08:10:42.413Z,1027.37
2019-03-29T08:11:46.454Z,1027.39
2019-03-29T08:12:42.449Z,1027.42
2019-03-29T08:13:42.458Z,1027.41
2019-03-29T08:14:42.469Z,1027.42
2019-03-29T08:15:42.490Z,1027.41
2019-03-29T08:16:42.497Z,1027.38
2019-03-29T08:17:42.512Z,1027.38
2019-03-29T08:18:42.528Z,1027.45
2019-03-29T08:19:42.540Z,1027.43
2019-03-29T08:20:44.468Z,1027.44
2019-03-29T08:21:42.567Z,1027.46
2019-03-29T08:22:42.581Z,1027.42
2019-03-29T08:23:42.590Z,1027.46
2019-03-29T08:24:42.605Z,1027.42
2019-03-29T08:25:42.626Z,1027.47
2019-03-29T08:26:42.630Z,1027.47
2019-03-29T08:27:42.695Z,1027.45
2019-03-29T08:28:42.658Z,1027.40
2019-03-29T08:29:42.674Z,1027.43
2019-03-29T08:30:42.686Z,1027.38
2019-03-29T08:31:42.773Z,1027.36
2019-03-29T08:32:42.719Z,1027.34
2019-03-29T08:33:42.734Z,1027.30
2019-03-29T08:34:42.747Z,1027.32
2019-03-29T08:35:42.751Z,1027.36
2019-03-29T08:36:42.772Z,1027.36
2019-03-29T08:37:42.780Z,1027.37
2019-03-29T08:38:42.793Z,1027.37
2019-03-29T08:39:42.811Z,1027.39
2019-03-29T08:40:45.265Z,1027.40
2019-03-29T08:41:42.833Z,1027.41
2019-03-29T08:42:42.847Z,1027.37
2019-03-29T08:43:42.856Z,1027.38
2019-03-29T08:44:42.868Z,1027.41
2019-03-29T08:45:42.884Z,1027.37
2019-03-29T08:46:42.895Z,1027.41
2019-03-29T08:47:42.907Z,1027.40
2019-03-29T08:48:42.927Z,1027.41
2019-03-29T08:49:42.939Z,1027.38
2019-03-29T08:50:42.955Z,1027.42
2019-03-29T08:51:43.435Z,1027.39
2019-03-29T08:52:42.991Z,1027.41
2019-03-29T08:53:42.993Z,1027.41
2019-03-29T08:54:43.005Z,1027.44
2019-03-29T08:55:46.142Z,1027.39
2019-03-29T08:56:43.035Z,1027.38
2019-03-29T08:57:43.054Z,1027.38
2019-03-29T08:58:46.384Z,1027.38
2019-03-29T08:59:43.097Z,1027.40
2019-03-29T09:00:43.095Z,1027.41
2019-03-29T09:01:43.101Z,1027.37
2019-03-29T09:02:43.121Z,1027.34
2019-03-29T09:03:43.148Z,1027.30
2019-03-29T09:04:43.147Z,1027.36
2019-03-29T09:05:43.153Z,1027.30
2019-03-29T09:06:53.192Z,1027.26
2019-03-29T09:07:45.099Z,1027.30
2019-03-29T09:08:43.196Z,1027.31
2019-03-29T09:09:46.261Z,1027.34
2019-03-29T09:10:43.238Z,1027.24
2019-03-29T09:11:43.268Z,1027.23
2019-03-29T09:12:43.254Z,1027.24
2019-03-29T09:13:43.265Z,1027.24
2019-03-29T09:14:43.279Z,1027.26
2019-03-29T09:15:43.350Z,1027.24
2019-03-29T09:16:43.303Z,1027.25
2019-03-29T09:17:43.347Z,1027.23
2019-03-29T09:18:43.332Z,1027.21
2019-03-29T09:19:43.347Z,1027.21
2019-03-29T09:20:43.361Z,1027.21
2019-03-29T09:21:43.375Z,1027.22
2019-03-29T09:22:43.392Z,1027.19
2019-03-29T09:23:43.462Z,1027.17
2019-03-29T09:24:43.422Z,1027.18
2019-03-29T09:25:43.436Z,1027.14
2019-03-29T09:26:43.454Z,1027.13
2019-03-29T09:27:43.470Z,1027.10
2019-03-29T09:28:43.471Z,1027.06
2019-03-29T09:29:43.490Z,1027.09
2019-03-29T09:30:43.503Z,1027.07
2019-03-29T09:31:43.515Z,1027.08
2019-03-29T09:32:43.528Z,1027.05
2019-03-29T09:33:43.543Z,1027.06
2019-03-29T09:34:43.554Z,1027.05
2019-03-29T09:35:43.571Z,1027.07
2019-03-29T09:36:43.583Z,1027.06
2019-03-29T09:37:43.609Z,1027.04
2019-03-29T09:38:43.919Z,1026.98
2019-03-29T09:39:43.628Z,1027.02
2019-03-29T09:40:50.862Z,1027.03
2019-03-29T09:41:43.649Z,1027.02
2019-03-29T09:42:43.661Z,1026.98
2019-03-29T09:43:43.679Z,1026.98
2019-03-29T09:44:43.696Z,1026.96
2019-03-29T09:45:43.719Z,1026.97
2019-03-29T09:46:43.718Z,1026.93
2019-03-29T09:47:43.743Z,1026.97
2019-03-29T09:48:43.772Z,1026.94
2019-03-29T09:49:43.762Z,1026.91
2019-03-29T09:50:47.502Z,1026.93
2019-03-29T09:51:43.802Z,1026.92
2019-03-29T09:52:43.806Z,1026.89
2019-03-29T09:53:43.827Z,1026.89
2019-03-29T09:54:43.875Z,1026.87
2019-03-29T09:55:45.749Z,1026.85
2019-03-29T09:56:43.859Z,1026.84
2019-03-29T09:57:43.878Z,1026.86
2019-03-29T09:58:45.217Z,1026.87
2019-03-29T09:59:43.918Z,1026.84
2019-03-29T10:00:43.916Z,1026.87
2019-03-29T10:01:43.931Z,1026.84
2019-03-29T10:02:43.953Z,1026.83
2019-03-29T10:03:43.973Z,1026.80
2019-03-29T10:04:43.972Z,1026.77
2019-03-29T10:05:43.994Z,1026.73
2019-03-29T10:06:44.000Z,1026.80
2019-03-29T10:07:44.021Z,1026.69
2019-03-29T10:08:44.043Z,1026.69
2019-03-29T10:09:44.065Z,1026.67
2019-03-29T10:10:44.068Z,1026.63
2019-03-29T10:11:44.085Z,1026.65
2019-03-29T10:12:44.246Z,1026.68
2019-03-29T10:13:44.109Z,1026.68
2019-03-29T10:14:44.120Z,1026.65
2019-03-29T10:15:44.127Z,1026.63
2019-03-29T10:16:44.150Z,1026.62
2019-03-29T10:17:44.163Z,1026.62
2019-03-29T10:18:44.174Z,1026.66
2019-03-29T10:19:44.197Z,1026.64
2019-03-29T10:20:44.202Z,1026.61
2019-03-29T10:21:44.215Z,1026.61
2019-03-29T10:22:44.234Z,1026.57
2019-03-29T10:23:44.238Z,1026.58
2019-03-29T10:24:44.262Z,1026.54
2019-03-29T10:25:44.267Z,1026.50
2019-03-29T10:26:44.280Z,1026.49
2019-03-29T10:27:44.300Z,1026.48
2019-03-29T10:28:44.313Z,1026.41
2019-03-29T10:29:44.327Z,1026.42
2019-03-29T10:30:46.645Z,1026.38
2019-03-29T10:31:44.363Z,1026.35
2019-03-29T10:32:44.369Z,1026.34
2019-03-29T10:33:44.435Z,1026.35
2019-03-29T10:34:44.400Z,1026.27
2019-03-29T10:35:51.965Z,1026.22
2019-03-29T10:36:44.431Z,1026.25
2019-03-29T10:37:44.466Z,1026.20
2019-03-29T10:38:44.461Z,1026.22
2019-03-29T10:39:44.461Z,1026.26
2019-03-29T10:40:44.504Z,1026.22
2019-03-29T10:41:44.498Z,1026.22
2019-03-29T10:42:57.029Z,1026.22
2019-03-29T10:43:45.388Z,1026.19
2019-03-29T10:44:44.541Z,1026.20
2019-03-29T10:45:44.558Z,1026.17
2019-03-29T10:46:44.581Z,1026.14
2019-03-29T10:47:44.578Z,1026.19
2019-03-29T10:48:44.596Z,1026.09
2019-03-29T10:49:44.609Z,1026.05
2019-03-29T10:50:44.848Z,1026.09
2019-03-29T10:51:44.637Z,1026.05
2019-03-29T10:52:44.649Z,1026.06
2019-03-29T10:53:44.668Z,1026.03
2019-03-29T10:54:44.696Z,1026.07
2019-03-29T10:55:44.698Z,1025.97
2019-03-29T10:56:44.710Z,1025.96
2019-03-29T10:57:44.724Z,1025.92
2019-03-29T10:58:45.094Z,1025.91
2019-03-29T10:59:44.747Z,1025.90
2019-03-29T11:00:44.766Z,1025.89
2019-03-29T11:01:44.777Z,1025.87
2019-03-29T11:02:44.796Z,1025.88
2019-03-29T11:03:44.808Z,1025.85
2019-03-29T11:04:44.826Z,1025.85
2019-03-29T11:05:44.848Z,1025.85
2019-03-29T11:06:44.848Z,1025.83
2019-03-29T11:07:44.874Z,1025.83
2019-03-29T11:08:45.820Z,1025.83
2019-03-29T11:09:44.890Z,1025.83
2019-03-29T11:10:44.904Z,1025.77
2019-03-29T11:11:44.922Z,1025.71
2019-03-29T11:12:44.935Z,1025.72
2019-03-29T11:13:44.963Z,1025.70
2019-03-29T11:14:44.967Z,1025.71
2019-03-29T11:15:44.978Z,1025.67
2019-03-29T11:16:44.995Z,1025.67
2019-03-29T11:17:45.008Z,1025.64
2019-03-29T11:18:45.876Z,1025.68
2019-03-29T11:19:45.036Z,1025.61
2019-03-29T11:20:45.057Z,1025.66
2019-03-29T11:21:45.066Z,1025.61
2019-03-29T11:22:45.079Z,1025.63
2019-03-29T11:23:45.102Z,1025.61
2019-03-29T11:24:45.133Z,1025.58
2019-03-29T11:25:48.367Z,1025.51
2019-03-29T11:26:45.141Z,1025.57
2019-03-29T11:27:45.149Z,1025.55
2019-03-29T11:28:45.169Z,1025.56
2019-03-29T11:29:45.190Z,1025.58
2019-03-29T11:30:45.194Z,1025.51
2019-03-29T11:31:45.215Z,1025.55
2019-03-29T11:32:45.239Z,1025.52
2019-03-29T11:33:45.250Z,1025.54
2019-03-29T11:34:45.253Z,1025.55
2019-03-29T11:35:45.273Z,1025.54
2019-03-29T11:36:45.279Z,1025.51
2019-03-29T11:37:45.295Z,1025.50
2019-03-29T11:38:45.310Z,1025.46
2019-03-29T11:39:45.327Z,1025.45
2019-03-29T11:40:45.353Z,1025.42
2019-03-29T11:41:45.352Z,1025.42
2019-03-29T11:42:45.367Z,1025.43
2019-03-29T11:43:45.394Z,1025.40
2019-03-29T11:44:45.400Z,1025.40
2019-03-29T11:45:45.413Z,1025.35
2019-03-29T11:46:45.427Z,1025.35
2019-03-29T11:47:45.439Z,1025.38
2019-03-29T11:48:45.455Z,1025.36
2019-03-29T11:49:45.481Z,1025.33
2019-03-29T11:50:45.487Z,1025.32
2019-03-29T11:51:45.511Z,1025.31
2019-03-29T11:52:45.535Z,1025.29
2019-03-29T11:53:45.526Z,1025.30
2019-03-29T11:54:45.549Z,1025.30
2019-03-29T11:55:45.559Z,1025.31
2019-03-29T11:56:47.597Z,1025.30
2019-03-29T11:57:45.597Z,1025.27
2019-03-29T11:58:45.621Z,1025.29
2019-03-29T11:59:45.623Z,1025.23
2019-03-29T12:00:45.639Z,1025.21
2019-03-29T12:01:45.655Z,1025.20
2019-03-29T12:02:45.660Z,1025.20
2019-03-29T12:03:45.678Z,1025.17
2019-03-29T12:04:45.699Z,1025.14
2019-03-29T12:05:45.704Z,1025.19
2019-03-29T12:06:45.725Z,1025.15
2019-03-29T12:07:45.752Z,1025.13
2019-03-29T12:08:45.748Z,1025.08
2019-03-29T12:09:45.768Z,1025.07
2019-03-29T12:10:45.777Z,1025.08
2019-03-29T12:11:45.795Z,1025.10
2019-03-29T12:12:45.808Z,1025.03
2019-03-29T12:13:45.831Z,1025.04
2019-03-29T12:14:46.043Z,1025.00
2019-03-29T12:15:45.852Z,1025.01
2019-03-29T12:16:45.870Z,1024.99
2019-03-29T12:17:45.878Z,1024.99
2019-03-29T12:18:45.888Z,1024.98
2019-03-29T12:19:45.906Z,1024.94
2019-03-29T12:20:45.925Z,1024.91
2019-03-29T12:21:45.942Z,1024.93
2019-03-29T12:22:45.954Z,1024.90
2019-03-29T12:23:45.967Z,1024.87
2019-03-29T12:24:45.985Z,1024.89
2019-03-29T12:25:45.997Z,1024.89
2019-03-29T12:26:46.015Z,1024.89
2019-03-29T12:27:46.026Z,1024.86
2019-03-29T12:28:46.039Z,1024.83
2019-03-29T12:29:46.048Z,1024.79
2019-03-29T12:30:46.066Z,1024.76
2019-03-29T12:31:46.078Z,1024.75
2019-03-29T12:32:46.100Z,1024.78
2019-03-29T12:33:46.120Z,1024.79
2019-03-29T12:34:46.127Z,1024.76
2019-03-29T12:35:46.143Z,1024.77
2019-03-29T12:36:46.299Z,1024.76
2019-03-29T12:37:46.175Z,1024.74
2019-03-29T12:38:46.181Z,1024.71
2019-03-29T12:39:46.203Z,1024.64
2019-03-29T12:40:46.220Z,1024.65
2019-03-29T12:41:46.228Z,1024.65
2019-03-29T12:42:46.244Z,1024.62
2019-03-29T12:43:55.382Z,1024.61
2019-03-29T12:44:46.288Z,1024.62
2019-03-29T12:45:46.289Z,1024.62
2019-03-29T12:46:46.311Z,1024.63
2019-03-29T12:47:46.321Z,1024.62
2019-03-29T12:48:46.342Z,1024.58
2019-03-29T12:49:46.353Z,1024.55
2019-03-29T12:50:46.362Z,1024.51
2019-03-29T12:51:47.057Z,1024.51
2019-03-29T12:52:46.389Z,1024.54
2019-03-29T12:53:46.415Z,1024.56
2019-03-29T12:54:46.418Z,1024.54
2019-03-29T12:55:46.478Z,1024.48
2019-03-29T12:56:46.454Z,1024.53
2019-03-29T12:57:46.499Z,1024.55
2019-03-29T12:58:46.532Z,1024.54
2019-03-29T12:59:46.495Z,1024.51
2019-03-29T13:00:46.511Z,1024.48
2019-03-29T13:01:46.524Z,1024.46
2019-03-29T13:02:46.544Z,1024.45
2019-03-29T13:03:46.570Z,1024.42
2019-03-29T13:04:47.241Z,1024.45
2019-03-29T13:05:46.587Z,1024.40
2019-03-29T13:06:46.601Z,1024.36
2019-03-29T13:07:46.616Z,1024.33
2019-03-29T13:08:46.635Z,1024.36
2019-03-29T13:09:46.647Z,1024.32
2019-03-29T13:10:46.659Z,1024.33
2019-03-29T13:11:46.692Z,1024.30
2019-03-29T13:12:46.697Z,1024.27
2019-03-29T13:13:46.712Z,1024.31
2019-03-29T13:14:46.724Z,1024.33
2019-03-29T13:15:46.834Z,1024.32
2019-03-29T13:16:46.756Z,1024.28
2019-03-29T13:17:46.765Z,1024.24
2019-03-29T13:18:46.795Z,1024.31
2019-03-29T13:19:46.792Z,1024.22
2019-03-29T13:20:46.819Z,1024.25
2019-03-29T13:21:46.830Z,1024.20
2019-03-29T13:22:46.836Z,1024.18
2019-03-29T13:23:46.858Z,1024.18
2019-03-29T13:24:46.880Z,1024.19
2019-03-29T13:25:46.893Z,1024.22
2019-03-29T13:26:47.520Z,1024.16
2019-03-29T13:27:46.911Z,1024.15
2019-03-29T13:28:46.931Z,1024.14
2019-03-29T13:29:46.954Z,1024.10
2019-03-29T13:30:46.971Z,1024.09
2019-03-29T13:31:46.983Z,1024.09
2019-03-29T13:32:46.995Z,1024.06
2019-03-29T13:33:47.008Z,1024.04
2019-03-29T13:34:47.022Z,1024.04
2019-03-29T13:35:47.046Z,1024.01
2019-03-29T13:36:47.055Z,1024.00
2019-03-29T13:37:47.076Z,1023.98
2019-03-29T13:38:47.081Z,1023.97
2019-03-29T13:39:47.102Z,1023.95
2019-03-29T13:40:47.110Z,1023.90
2019-03-29T13:41:47.125Z,1023.86
2019-03-29T13:42:47.148Z,1023.88
2019-03-29T13:43:47.160Z,1023.88
2019-03-29T13:44:47.178Z,1023.85
2019-03-29T13:45:47.190Z,1023.87
2019-03-29T13:46:47.200Z,1023.80
2019-03-29T13:47:47.225Z,1023.81
2019-03-29T13:48:47.230Z,1023.79
2019-03-29T13:49:47.253Z,1023.92
2019-03-29T13:50:47.268Z,1024.10
2019-03-29T13:51:47.276Z,1024.04
2019-03-29T13:52:47.299Z,1024.09
2019-03-29T13:53:47.319Z,1024.06
2019-03-29T13:54:47.341Z,1023.91
2019-03-29T13:55:47.343Z,1023.85
2019-03-29T13:56:47.364Z,1023.82
2019-03-29T13:57:47.377Z,1023.85
2019-03-29T13:58:47.406Z,1023.80
2019-03-29T13:59:47.433Z,1023.89
2019-03-29T14:00:47.472Z,1023.94
2019-03-29T14:01:47.462Z,1023.95
2019-03-29T14:02:47.462Z,1023.97
2019-03-29T14:03:47.489Z,1024.06
2019-03-29T14:04:47.508Z,1024.10
2019-03-29T14:05:47.524Z,1024.11
2019-03-29T14:06:47.545Z,1024.14
2019-03-29T14:07:47.564Z,1024.24
2019-03-29T14:08:47.583Z,1024.26
2019-03-29T14:09:47.613Z,1024.21
2019-03-29T14:10:47.627Z,1024.18
2019-03-29T14:11:47.649Z,1024.23
2019-03-29T14:12:47.669Z,1024.23
2019-03-29T14:13:47.693Z,1024.21
2019-03-29T14:14:47.715Z,1024.26
2019-03-29T14:15:47.751Z,1024.26
2019-03-29T14:16:47.775Z,1024.19
2019-03-29T14:17:47.779Z,1024.20
2019-03-29T14:18:47.805Z,1024.22
2019-03-29T14:19:47.834Z,1024.25
2019-03-29T14:20:47.857Z,1024.29
2019-03-29T14:21:47.873Z,1024.26
2019-03-29T14:22:47.958Z,1024.25
2019-03-29T14:23:47.922Z,1024.30
2019-03-29T14:24:47.945Z,1024.31
2019-03-29T14:25:47.970Z,1024.36
2019-03-29T14:26:47.999Z,1024.35
2019-03-29T14:27:48.014Z,1024.37
2019-03-29T14:28:48.048Z,1024.35
2019-03-29T14:29:48.069Z,1024.32
2019-03-29T14:30:48.090Z,1024.30
2019-03-29T14:31:48.111Z,1024.28
2019-03-29T14:32:48.143Z,1024.33
2019-03-29T14:33:48.162Z,1024.33
2019-03-29T14:34:48.195Z,1024.32
2019-03-29T14:35:48.213Z,1024.23
2019-03-29T14:36:48.232Z,1024.23
2019-03-29T14:37:48.258Z,1024.27
2019-03-29T14:38:49.323Z,1024.21
2019-03-29T14:39:48.305Z,1024.27
2019-03-29T14:40:48.331Z,1024.27
2019-03-29T14:41:48.364Z,1024.25
2019-03-29T14:42:48.381Z,1024.26
2019-03-29T14:43:48.416Z,1024.29
2019-03-29T14:44:52.790Z,1024.27
2019-03-29T14:45:48.454Z,1024.27
2019-03-29T14:46:48.484Z,1024.24
2019-03-29T14:47:48.501Z,1024.23
2019-03-29T14:48:48.530Z,1023.93
2019-03-29T14:49:48.558Z,1023.54
2019-03-29T14:50:48.575Z,1023.23
2019-03-29T14:51:48.603Z,1023.17
2019-03-29T14:52:48.627Z,1023.13
2019-03-29T14:53:48.648Z,1023.08
2019-03-29T14:54:48.672Z,1023.03
2019-03-29T14:55:51.661Z,1023.01
2019-03-29T14:56:48.888Z,1022.94
2019-03-29T14:57:50.372Z,1023.01
2019-03-29T14:58:50.187Z,1023.02
2019-03-29T14:59:49.618Z,1022.97
2019-03-29T15:00:49.364Z,1022.97
2019-03-29T15:01:48.828Z,1022.92
2019-03-29T15:02:48.854Z,1022.90
2019-03-29T15:03:48.885Z,1022.84
2019-03-29T15:04:48.890Z,1022.86
2019-03-29T15:05:48.917Z,1022.83
2019-03-29T15:06:48.926Z,1022.85
2019-03-29T15:07:48.952Z,1022.80
2019-03-29T15:08:49.893Z,1022.87
2019-03-29T15:09:48.997Z,1022.76
2019-03-29T15:10:49.003Z,1022.73
2019-03-29T15:11:49.022Z,1022.68
2019-03-29T15:12:49.039Z,1022.68
2019-03-29T15:13:49.058Z,1022.67
2019-03-29T15:14:49.080Z,1022.66
2019-03-29T15:15:49.108Z,1022.66
2019-03-29T15:16:49.113Z,1022.65
2019-03-29T15:17:49.132Z,1022.65
2019-03-29T15:18:49.154Z,1022.65
2019-03-29T15:19:49.170Z,1022.63
2019-03-29T15:20:53.922Z,1022.65
2019-03-29T15:21:49.197Z,1022.66
2019-03-29T15:22:49.212Z,1022.67
2019-03-29T15:23:49.241Z,1022.76
2019-03-29T15:24:49.252Z,1023.09
2019-03-29T15:25:49.262Z,1023.46
2019-03-29T15:26:49.291Z,1023.55
2019-03-29T15:27:49.314Z,1023.50
2019-03-29T15:28:49.319Z,1023.54
2019-03-29T15:29:49.340Z,1023.54
2019-03-29T15:30:52.194Z,1023.51
2019-03-29T15:31:49.380Z,1023.49
2019-03-29T15:32:49.392Z,1023.49
2019-03-29T15:33:49.414Z,1023.49
2019-03-29T15:34:49.438Z,1023.46
2019-03-29T15:35:49.462Z,1023.49
2019-03-29T15:36:49.485Z,1023.47
2019-03-29T15:37:49.512Z,1023.44
2019-03-29T15:38:49.520Z,1023.43
2019-03-29T15:39:49.554Z,1023.42
2019-03-29T15:40:49.564Z,1023.44
2019-03-29T15:41:49.598Z,1023.41
2019-03-29T15:42:49.639Z,1023.44
2019-03-29T15:43:49.632Z,1023.42
2019-03-29T15:44:49.647Z,1023.40
2019-03-29T15:45:49.679Z,1023.44
2019-03-29T15:46:49.688Z,1023.37
2019-03-29T15:47:49.734Z,1023.37
2019-03-29T15:48:49.743Z,1023.36
2019-03-29T15:49:55.911Z,1023.32
2019-03-29T15:50:49.798Z,1023.25
2019-03-29T15:51:49.805Z,1023.27
2019-03-29T15:52:49.830Z,1023.29
2019-03-29T15:53:49.853Z,1023.32
2019-03-29T15:54:49.877Z,1023.27
2019-03-29T15:55:49.904Z,1023.27
2019-03-29T15:56:49.926Z,1023.22
2019-03-29T15:57:49.946Z,1023.21
2019-03-29T15:58:49.973Z,1023.24
2019-03-29T15:59:49.996Z,1023.17
2019-03-29T16:00:50.019Z,1023.18
2019-03-29T16:01:50.058Z,1023.05
2019-03-29T16:02:50.073Z,1022.78
2019-03-29T16:03:50.088Z,1022.49
2019-03-29T16:04:50.115Z,1022.24
2019-03-29T16:05:50.703Z,1022.22
2019-03-29T16:06:50.183Z,1022.22
2019-03-29T16:07:50.191Z,1022.17
2019-03-29T16:08:50.218Z,1022.12
2019-03-29T16:09:50.237Z,1022.08
2019-03-29T16:10:50.257Z,1022.09
2019-03-29T16:11:50.280Z,1022.07
2019-03-29T16:12:50.609Z,1022.07
2019-03-29T16:13:50.316Z,1021.99
2019-03-29T16:14:50.356Z,1021.99
2019-03-29T16:15:50.363Z,1021.98
2019-03-29T16:16:50.385Z,1022.01
2019-03-29T16:17:50.398Z,1022.01
2019-03-29T16:18:50.417Z,1021.96
2019-03-29T16:19:50.440Z,1021.97
2019-03-29T16:20:50.475Z,1021.98
2019-03-29T16:21:50.482Z,1021.95
2019-03-29T16:22:50.496Z,1021.98
2019-03-29T16:23:50.512Z,1021.88
2019-03-29T16:24:50.532Z,1021.91
2019-03-29T16:25:50.558Z,1021.86
2019-03-29T16:26:50.866Z,1021.84
2019-03-29T16:27:50.588Z,1021.83
2019-03-29T16:28:50.606Z,1021.79
2019-03-29T16:29:50.645Z,1021.76
2019-03-29T16:30:50.645Z,1021.73
2019-03-29T16:31:50.658Z,1021.72
2019-03-29T16:32:50.682Z,1021.67
2019-03-29T16:33:50.697Z,1021.68
2019-03-29T16:34:50.966Z,1021.69
2019-03-29T16:35:50.728Z,1021.68
2019-03-29T16:36:50.814Z,1021.69
2019-03-29T16:37:57.060Z,1021.65
2019-03-29T16:38:50.789Z,1021.66
2019-03-29T16:39:50.801Z,1021.62
2019-03-29T16:40:50.814Z,1021.66
2019-03-29T16:41:50.828Z,1021.64
2019-03-29T16:42:50.854Z,1021.64
2019-03-29T16:43:50.864Z,1021.60
2019-03-29T16:44:50.873Z,1021.58
2019-03-29T16:45:50.893Z,1021.58
2019-03-29T16:46:50.914Z,1021.56
2019-03-29T16:47:50.926Z,1021.57
2019-03-29T16:48:50.956Z,1021.59
2019-03-29T16:49:50.963Z,1021.55
2019-03-29T16:50:50.979Z,1021.57
2019-03-29T16:51:51.000Z,1021.53
2019-03-29T16:52:51.020Z,1021.55
2019-03-29T16:53:51.021Z,1021.54
2019-03-29T16:54:51.041Z,1021.59
2019-03-29T16:55:51.062Z,1021.54
2019-03-29T16:56:51.069Z,1021.55
2019-03-29T16:57:51.092Z,1021.54
2019-03-29T16:58:51.097Z,1021.56
2019-03-29T16:59:51.115Z,1021.53
2019-03-29T17:00:51.151Z,1021.51
2019-03-29T17:01:51.537Z,1021.48
2019-03-29T17:02:51.160Z,1021.49
2019-03-29T17:03:51.190Z,1021.46
2019-03-29T17:04:51.210Z,1021.49
2019-03-29T17:05:51.211Z,1021.46
2019-03-29T17:06:51.233Z,1021.47
2019-03-29T17:07:51.247Z,1021.49
2019-03-29T17:08:51.260Z,1021.47
2019-03-29T17:09:51.278Z,1021.45
2019-03-29T17:10:51.289Z,1021.47
2019-03-29T17:11:51.306Z,1021.46
2019-03-29T17:12:52.317Z,1021.46
2019-03-29T17:13:51.328Z,1021.43
2019-03-29T17:14:51.352Z,1021.38
2019-03-29T17:16:01.510Z,1021.39
2019-03-29T17:16:52.943Z,1021.36
2019-03-29T17:17:51.395Z,1021.39
2019-03-29T17:18:51.415Z,1021.39
2019-03-29T17:19:51.421Z,1021.35
2019-03-29T17:20:51.478Z,1021.36
2019-03-29T17:21:51.761Z,1021.33
2019-03-29T17:22:51.607Z,1021.31
2019-03-29T17:23:52.875Z,1021.30
2019-03-29T17:24:57.102Z,1021.30
2019-03-29T17:25:51.522Z,1021.28
2019-03-29T17:26:51.530Z,1021.28
2019-03-29T17:27:52.240Z,1021.30
2019-03-29T17:28:51.563Z,1021.28
2019-03-29T17:29:51.582Z,1021.33
2019-03-29T17:30:51.591Z,1021.31
2019-03-29T17:32:51.624Z,1021.29
2019-03-29T17:33:51.649Z,1021.29
2019-03-29T17:34:51.654Z,1021.31
2019-03-29T17:35:51.672Z,1021.29
2019-03-29T17:36:51.690Z,1021.28
2019-03-29T17:37:51.702Z,1021.32
2019-03-29T17:38:51.718Z,1021.34
2019-03-29T17:39:51.731Z,1021.34
2019-03-29T17:40:51.849Z,1021.34
2019-03-29T17:41:51.768Z,1021.33
2019-03-29T17:42:51.772Z,1021.30
2019-03-29T17:43:51.798Z,1021.32
2019-03-29T17:44:51.803Z,1021.30
2019-03-29T17:45:51.813Z,1021.27
2019-03-29T17:46:51.831Z,1021.32
2019-03-29T17:47:51.845Z,1021.28
2019-03-29T17:48:51.863Z,1021.28
2019-03-29T17:49:51.876Z,1021.28
2019-03-29T17:50:51.892Z,1021.32
2019-03-29T17:51:51.907Z,1021.34
2019-03-29T17:52:51.925Z,1021.31
2019-03-29T17:53:51.937Z,1021.35
2019-03-29T17:54:51.955Z,1021.34
2019-03-29T17:55:51.977Z,1021.31
2019-03-29T17:56:51.983Z,1021.32
2019-03-29T17:57:52.004Z,1021.32
2019-03-29T17:58:52.012Z,1021.29
2019-03-29T17:59:52.027Z,1021.31
2019-03-29T18:00:52.039Z,1021.32
2019-03-29T18:01:52.064Z,1021.28
2019-03-29T18:02:52.072Z,1021.27
2019-03-29T18:03:52.121Z,1021.28
2019-03-29T18:04:52.103Z,1021.31
2019-03-29T18:05:52.127Z,1021.27
2019-03-29T18:06:52.138Z,1021.26
2019-03-29T18:07:52.153Z,1021.30
2019-03-29T18:08:52.186Z,1021.25
2019-03-29T18:09:52.178Z,1021.26
2019-03-29T18:10:52.188Z,1021.25
2019-03-29T18:11:52.205Z,1021.28
2019-03-29T18:12:52.226Z,1021.31
2019-03-29T18:13:52.247Z,1021.28
2019-03-29T18:14:52.262Z,1021.29
2019-03-29T18:15:52.268Z,1021.30
2019-03-29T18:16:52.293Z,1021.32
2019-03-29T18:17:52.297Z,1021.30
2019-03-29T18:18:52.317Z,1021.36
2019-03-29T18:19:52.329Z,1021.36
2019-03-29T18:20:52.348Z,1021.36
2019-03-29T18:21:52.364Z,1021.31
2019-03-29T18:22:52.389Z,1021.34
2019-03-29T18:23:52.397Z,1021.34
2019-03-29T18:24:52.400Z,1021.34
2019-03-29T18:25:52.416Z,1021.37
2019-03-29T18:26:52.430Z,1021.35
2019-03-29T18:27:52.449Z,1021.35
2019-03-29T18:28:52.463Z,1021.36
2019-03-29T18:29:52.476Z,1021.40
2019-03-29T18:30:52.494Z,1021.37
2019-03-29T18:31:52.508Z,1021.37
2019-03-29T18:32:52.524Z,1021.41
2019-03-29T18:33:52.536Z,1021.40
2019-03-29T18:34:52.554Z,1021.38
2019-03-29T18:35:52.567Z,1021.40
2019-03-29T18:36:52.581Z,1021.36
2019-03-29T18:37:52.600Z,1021.43
2019-03-29T18:38:52.615Z,1021.43
2019-03-29T18:39:54.909Z,1021.42
2019-03-29T18:40:52.652Z,1021.44
2019-03-29T18:41:52.663Z,1021.44
2019-03-29T18:42:52.692Z,1021.43
2019-03-29T18:43:52.693Z,1021.44
2019-03-29T18:44:52.701Z,1021.40
2019-03-29T18:45:52.716Z,1021.43
2019-03-29T18:46:52.731Z,1021.44
2019-03-29T18:47:52.745Z,1021.43
2019-03-29T18:48:52.765Z,1021.42
2019-03-29T18:49:52.777Z,1021.40
2019-03-29T18:50:52.789Z,1021.42
2019-03-29T18:51:52.809Z,1021.40
2019-03-29T18:52:52.825Z,1021.36
2019-03-29T18:53:52.840Z,1021.33
2019-03-29T18:54:52.849Z,1021.37
2019-03-29T18:55:52.869Z,1021.36
2019-03-29T18:56:52.878Z,1021.34
2019-03-29T18:57:52.927Z,1021.38
2019-03-29T18:58:52.910Z,1021.37
2019-03-29T18:59:52.929Z,1021.34
2019-03-29T19:00:52.950Z,1021.37
2019-03-29T19:01:52.970Z,1021.36
2019-03-29T19:02:52.968Z,1021.35
2019-03-29T19:03:52.992Z,1021.36
2019-03-29T19:04:53.006Z,1021.37
2019-03-29T19:05:53.017Z,1021.40
2019-03-29T19:06:53.032Z,1021.38
2019-03-29T19:07:53.053Z,1021.37
2019-03-29T19:08:53.066Z,1021.35
2019-03-29T19:09:53.075Z,1021.37
2019-03-29T19:10:53.093Z,1021.33
2019-03-29T19:11:53.109Z,1021.37
2019-03-29T19:12:53.117Z,1021.36
2019-03-29T19:13:53.140Z,1021.35
2019-03-29T19:14:53.145Z,1021.35
2019-03-29T19:15:53.165Z,1021.39
2019-03-29T19:16:59.123Z,1021.33
2019-03-29T19:17:53.193Z,1021.36
2019-03-29T19:18:53.215Z,1021.35
2019-03-29T19:19:53.222Z,1021.33
2019-03-29T19:20:53.234Z,1021.34
2019-03-29T19:21:53.247Z,1021.32
2019-03-29T19:22:53.265Z,1021.31
2019-03-29T19:23:53.276Z,1021.34
2019-03-29T19:24:53.302Z,1021.31
2019-03-29T19:25:53.313Z,1021.30
2019-03-29T19:26:53.331Z,1021.27
2019-03-29T19:27:53.339Z,1021.28
2019-03-29T19:28:53.357Z,1021.27
2019-03-29T19:29:53.366Z,1021.32
2019-03-29T19:30:53.418Z,1021.27
2019-03-29T19:31:55.392Z,1021.26
2019-03-29T19:32:53.427Z,1021.21
2019-03-29T19:33:53.440Z,1021.22
2019-03-29T19:34:53.446Z,1021.22
2019-03-29T19:35:53.456Z,1021.20
2019-03-29T19:36:53.471Z,1021.20
2019-03-29T19:37:53.486Z,1021.20
2019-03-29T19:38:53.498Z,1021.20
2019-03-29T19:39:53.520Z,1021.17
2019-03-29T19:40:53.541Z,1021.16
2019-03-29T19:41:53.547Z,1021.11
2019-03-29T19:42:53.559Z,1021.12
2019-03-29T19:43:53.588Z,1021.16
2019-03-29T19:44:53.588Z,1021.15
2019-03-29T19:45:53.609Z,1021.17
2019-03-29T19:46:53.625Z,1021.15
2019-03-29T19:47:53.637Z,1021.15
2019-03-29T19:48:53.682Z,1021.12
2019-03-29T19:49:55.352Z,1021.12
2019-03-29T19:50:53.673Z,1021.15
2019-03-29T19:51:53.695Z,1021.13
2019-03-29T19:52:53.720Z,1021.14
2019-03-29T19:54:06.738Z,1021.19
2019-03-29T19:54:53.746Z,1021.20